createdAt,value
2023-05-19T00:00:18.108Z,69.71
2023-05-19T00:01:18.088Z,69.58
2023-05-19T00:02:18.115Z,69.80
2023-05-19T00:03:18.175Z,69.78
2023-05-19T00:04:18.077Z,69.80
2023-05-19T00:05:18.045Z,69.84
2023-05-19T00:06:18.202Z,69.85
2023-05-19T00:07:18.004Z,70.01
2023-05-19T00:08:18.005Z,70.03
2023-05-19T00:09:17.983Z,70.11
2023-05-19T00:10:17.989Z,69.98
2023-05-19T00:11:17.962Z,70.06
2023-05-19T00:12:17.943Z,69.88
2023-05-19T00:13:17.932Z,69.96
2023-05-19T00:14:17.926Z,70.20
2023-05-19T00:15:17.912Z,70.28
2023-05-19T00:16:17.939Z,70.35
2023-05-19T00:17:17.880Z,70.29
2023-05-19T00:18:17.875Z,70.12
2023-05-19T00:19:17.948Z,70.26
2023-05-19T00:20:17.867Z,70.18
2023-05-19T00:21:17.838Z,70.25
2023-05-19T00:22:17.806Z,70.23
2023-05-19T00:23:17.803Z,70.21
2023-05-19T00:24:17.801Z,70.19
2023-05-19T00:25:17.808Z,70.31
2023-05-19T00:26:17.759Z,70.47
2023-05-19T00:27:17.742Z,70.29
2023-05-19T00:28:17.741Z,70.44
2023-05-19T00:29:17.766Z,70.38
2023-05-19T00:30:17.717Z,70.63
2023-05-19T00:31:17.845Z,70.68
2023-05-19T00:32:17.806Z,70.67
2023-05-19T00:33:17.656Z,70.63
2023-05-19T00:34:17.658Z,70.37
2023-05-19T00:35:17.652Z,70.51
2023-05-19T00:36:17.639Z,70.44
2023-05-19T00:37:17.619Z,70.56
2023-05-19T00:38:17.600Z,70.71
2023-05-19T00:39:17.616Z,70.52
2023-05-19T00:40:17.583Z,70.80
2023-05-19T00:41:17.573Z,70.80
2023-05-19T00:42:17.543Z,70.73
2023-05-19T00:43:17.541Z,70.74
2023-05-19T00:44:17.520Z,70.72
2023-05-19T00:45:17.502Z,70.72
2023-05-19T00:46:17.526Z,70.74
2023-05-19T00:47:17.495Z,70.76
2023-05-19T00:48:17.469Z,70.67
2023-05-19T00:49:17.474Z,70.57
2023-05-19T00:50:17.439Z,70.63
2023-05-19T00:51:17.447Z,70.79
2023-05-19T00:52:17.425Z,70.82
2023-05-19T00:53:17.397Z,70.85
2023-05-19T00:54:17.408Z,70.75
2023-05-19T00:55:17.377Z,70.77
2023-05-19T00:56:17.388Z,70.85
2023-05-19T00:57:17.350Z,70.76
2023-05-19T00:58:17.339Z,70.94
2023-05-19T00:59:17.319Z,70.75
2023-05-19T01:00:17.303Z,70.95
2023-05-19T01:01:17.528Z,70.92
2023-05-19T01:02:17.300Z,70.93
2023-05-19T01:03:17.336Z,70.87
2023-05-19T01:04:17.255Z,70.93
2023-05-19T01:05:17.249Z,71.00
2023-05-19T01:06:17.222Z,70.98
2023-05-19T01:07:17.227Z,70.97
2023-05-19T01:08:17.219Z,71.00
2023-05-19T01:09:17.191Z,71.01
2023-05-19T01:10:17.175Z,71.00
2023-05-19T01:11:17.171Z,71.03
2023-05-19T01:12:17.168Z,71.09
2023-05-19T01:13:17.136Z,71.31
2023-05-19T01:14:17.142Z,71.30
2023-05-19T01:15:17.110Z,71.25
2023-05-19T01:16:17.144Z,71.24
2023-05-19T01:17:17.097Z,71.17
2023-05-19T01:18:17.086Z,71.32
2023-05-19T01:19:17.089Z,71.40
2023-05-19T01:20:17.112Z,71.44
2023-05-19T01:21:17.041Z,71.36
2023-05-19T01:22:17.021Z,71.50
2023-05-19T01:23:17.041Z,71.46
2023-05-19T01:24:16.992Z,71.41
2023-05-19T01:25:16.992Z,71.44
2023-05-19T01:26:16.986Z,71.55
2023-05-19T01:27:16.974Z,71.74
2023-05-19T01:28:16.961Z,71.47
2023-05-19T01:29:16.957Z,71.52
2023-05-19T01:30:16.917Z,71.57
2023-05-19T01:31:16.938Z,71.61
2023-05-19T01:32:16.940Z,71.66
2023-05-19T01:33:16.877Z,71.37
2023-05-19T01:34:16.882Z,71.35
2023-05-19T01:35:16.878Z,71.37
2023-05-19T01:36:16.838Z,71.58
2023-05-19T01:37:16.826Z,71.53
2023-05-19T01:38:16.829Z,71.51
2023-05-19T01:39:16.816Z,71.59
2023-05-19T01:40:16.789Z,71.77
2023-05-19T01:41:16.774Z,71.71
2023-05-19T01:42:16.788Z,71.62
2023-05-19T01:43:16.748Z,71.84
2023-05-19T01:44:16.761Z,71.89
2023-05-19T01:45:16.768Z,71.81
2023-05-19T01:46:16.771Z,71.54
2023-05-19T01:47:16.713Z,71.40
2023-05-19T01:48:16.779Z,71.58
2023-05-19T01:49:16.699Z,71.55
2023-05-19T01:50:16.660Z,71.73
2023-05-19T01:51:16.674Z,71.74
2023-05-19T01:52:16.633Z,71.62
2023-05-19T01:53:16.630Z,71.67
2023-05-19T01:54:16.619Z,71.62
2023-05-19T01:55:16.612Z,71.70
2023-05-19T01:56:16.611Z,71.74
2023-05-19T01:57:16.581Z,71.62
2023-05-19T01:58:16.570Z,71.85
2023-05-19T01:59:16.588Z,71.79
2023-05-19T02:00:16.865Z,71.90
2023-05-19T02:01:16.555Z,71.66
2023-05-19T02:02:16.508Z,71.73
2023-05-19T02:03:16.522Z,71.68
2023-05-19T02:04:16.527Z,71.85
2023-05-19T02:05:16.477Z,71.86
2023-05-19T02:06:16.479Z,71.80
2023-05-19T02:07:16.434Z,71.94
2023-05-19T02:08:16.433Z,71.80
2023-05-19T02:09:16.440Z,71.76
2023-05-19T02:10:16.406Z,71.68
2023-05-19T02:11:16.405Z,71.68
2023-05-19T02:12:16.408Z,71.66
2023-05-19T02:13:16.378Z,71.86
2023-05-19T02:14:16.360Z,71.99
2023-05-19T02:15:16.363Z,71.87
2023-05-19T02:16:16.380Z,71.96
2023-05-19T02:17:16.319Z,72.00
2023-05-19T02:18:16.324Z,72.18
2023-05-19T02:19:16.310Z,72.18
2023-05-19T02:20:16.282Z,72.13
2023-05-19T02:21:16.299Z,72.14
2023-05-19T02:22:16.258Z,71.94
2023-05-19T02:23:16.267Z,71.75
2023-05-19T02:24:16.259Z,71.76
2023-05-19T02:25:16.222Z,71.93
2023-05-19T02:26:16.229Z,72.01
2023-05-19T02:27:16.226Z,71.99
2023-05-19T02:28:16.179Z,71.92
2023-05-19T02:29:16.176Z,72.04
2023-05-19T02:30:16.174Z,72.01
2023-05-19T02:31:16.149Z,72.08
2023-05-19T02:32:16.186Z,72.11
2023-05-19T02:33:16.124Z,72.16
2023-05-19T02:34:16.123Z,72.07
2023-05-19T02:35:16.110Z,72.11
2023-05-19T02:36:16.095Z,71.89
2023-05-19T02:37:16.111Z,72.07
2023-05-19T02:38:16.072Z,72.16
2023-05-19T02:39:16.060Z,72.14
2023-05-19T02:40:16.036Z,71.96
2023-05-19T02:41:16.020Z,71.98
2023-05-19T02:42:16.031Z,72.03
2023-05-19T02:43:16.003Z,71.96
2023-05-19T02:44:15.988Z,71.81
2023-05-19T02:45:15.992Z,71.82
2023-05-19T02:46:16.017Z,71.89
2023-05-19T02:47:15.965Z,72.01
2023-05-19T02:48:15.955Z,71.99
2023-05-19T02:49:15.942Z,71.85
2023-05-19T02:50:15.922Z,71.73
2023-05-19T02:51:15.924Z,71.75
2023-05-19T02:52:15.901Z,71.75
2023-05-19T02:53:15.875Z,72.02
2023-05-19T02:54:15.879Z,71.97
2023-05-19T02:55:15.867Z,71.82
2023-05-19T02:56:15.833Z,71.89
2023-05-19T02:57:15.827Z,72.00
2023-05-19T02:58:15.812Z,71.86
2023-05-19T02:59:15.829Z,71.93
2023-05-19T03:00:15.820Z,71.71
2023-05-19T03:01:15.781Z,71.83
2023-05-19T03:02:15.825Z,72.04
2023-05-19T03:03:15.821Z,71.95
2023-05-19T03:04:15.731Z,71.70
2023-05-19T03:05:15.765Z,71.90
2023-05-19T03:06:15.718Z,72.06
2023-05-19T03:07:15.712Z,71.89
2023-05-19T03:08:15.689Z,71.72
2023-05-19T03:09:15.672Z,71.81
2023-05-19T03:10:15.653Z,71.71
2023-05-19T03:11:15.651Z,71.64
2023-05-19T03:12:15.633Z,71.96
2023-05-19T03:13:15.617Z,72.04
2023-05-19T03:14:15.604Z,71.90
2023-05-19T03:15:15.595Z,72.22
2023-05-19T03:16:15.636Z,72.25
2023-05-19T03:17:15.617Z,72.32
2023-05-19T03:18:15.570Z,72.36
2023-05-19T03:19:15.577Z,72.48
2023-05-19T03:20:15.554Z,72.51
2023-05-19T03:21:15.523Z,72.48
2023-05-19T03:22:15.524Z,72.45
2023-05-19T03:23:15.488Z,72.55
2023-05-19T03:24:15.474Z,72.59
2023-05-19T03:25:15.478Z,72.79
2023-05-19T03:26:15.469Z,72.79
2023-05-19T03:27:15.447Z,72.71
2023-05-19T03:28:15.429Z,72.55
2023-05-19T03:29:15.429Z,72.53
2023-05-19T03:30:15.397Z,72.43
2023-05-19T03:31:15.393Z,72.39
2023-05-19T03:32:15.470Z,72.36
2023-05-19T03:33:15.536Z,72.38
2023-05-19T03:34:15.347Z,72.36
2023-05-19T03:35:15.351Z,72.43
2023-05-19T03:36:15.362Z,72.43
2023-05-19T03:37:15.357Z,72.34
2023-05-19T03:38:15.330Z,72.43
2023-05-19T03:39:15.304Z,72.56
2023-05-19T03:40:15.275Z,72.58
2023-05-19T03:41:15.260Z,72.55
2023-05-19T03:42:15.260Z,72.53
2023-05-19T03:43:15.271Z,72.57
2023-05-19T03:44:15.242Z,72.46
2023-05-19T03:45:15.213Z,72.26
2023-05-19T03:46:15.263Z,72.45
2023-05-19T03:47:15.203Z,72.33
2023-05-19T03:48:15.205Z,72.29
2023-05-19T03:49:15.246Z,72.35
2023-05-19T03:50:15.154Z,72.46
2023-05-19T03:51:15.144Z,72.57
2023-05-19T03:52:15.169Z,72.35
2023-05-19T03:53:15.133Z,72.44
2023-05-19T03:54:15.105Z,72.33
2023-05-19T03:55:15.127Z,72.41
2023-05-19T03:56:15.122Z,72.60
2023-05-19T03:57:15.096Z,72.65
2023-05-19T04:20:54.490Z,72.45
2023-05-19T04:21:55.450Z,72.80
2023-05-19T04:22:55.274Z,72.85
2023-05-19T04:23:55.198Z,73.06
2023-05-19T04:24:55.182Z,73.11
2023-05-19T04:25:55.117Z,73.21
2023-05-19T04:26:55.117Z,73.11
2023-05-19T04:27:55.133Z,73.25
2023-05-19T04:28:55.130Z,73.24
2023-05-19T04:29:55.079Z,73.37
2023-05-19T04:30:55.116Z,73.31
2023-05-19T04:31:55.013Z,73.29
2023-05-19T04:32:55.122Z,73.31
2023-05-19T04:33:55.022Z,73.39
2023-05-19T04:34:55.022Z,73.41
2023-05-19T04:35:55.044Z,73.34
2023-05-19T04:36:55.016Z,73.23
2023-05-19T04:37:54.960Z,73.39
2023-05-19T04:38:55.032Z,73.44
2023-05-19T04:39:54.967Z,73.55
2023-05-19T04:40:54.910Z,73.49
2023-05-19T04:41:54.917Z,73.38
2023-05-19T04:42:55.668Z,73.23
2023-05-19T04:43:55.796Z,72.98
2023-05-19T04:44:55.208Z,73.07
2023-05-19T04:45:55.241Z,72.85
2023-05-19T04:46:55.639Z,72.95
2023-05-19T04:47:54.890Z,73.09
2023-05-19T04:48:54.862Z,73.18
2023-05-19T04:49:54.817Z,73.22
2023-05-19T04:50:54.792Z,73.15
2023-05-19T04:51:55.881Z,73.11
2023-05-19T04:52:54.785Z,73.16
2023-05-19T04:53:54.817Z,73.20
2023-05-19T04:54:54.757Z,73.23
2023-05-19T04:55:54.859Z,73.30
2023-05-19T04:56:54.709Z,73.37
2023-05-19T04:57:54.735Z,73.28
2023-05-19T04:58:54.826Z,73.27
2023-05-19T04:59:54.678Z,73.38
2023-05-19T05:00:54.711Z,73.46
2023-05-19T05:01:54.804Z,73.38
2023-05-19T05:02:55.335Z,73.42
2023-05-19T05:03:55.315Z,73.39
2023-05-19T05:07:21.914Z,72.67
2023-05-19T05:08:23.521Z,73.00
2023-05-19T05:09:23.339Z,73.23
2023-05-19T05:10:22.614Z,73.36
2023-05-19T05:11:22.657Z,73.40
2023-05-19T05:12:22.681Z,73.42
2023-05-19T05:13:22.634Z,73.45
2023-05-19T05:14:22.605Z,73.23
2023-05-19T05:15:22.585Z,73.24
2023-05-19T05:16:22.689Z,73.38
2023-05-19T05:17:44.996Z,73.42
2023-05-19T05:18:22.515Z,73.29
2023-05-19T05:19:22.746Z,73.25
2023-05-19T05:20:22.535Z,73.41
2023-05-19T05:21:22.487Z,73.22
2023-05-19T05:22:22.547Z,73.29
2023-05-19T05:35:22.977Z,74.63
2023-05-19T05:36:23.974Z,74.94
2023-05-19T05:37:23.815Z,75.09
2023-05-19T05:38:23.807Z,75.16
2023-05-19T05:39:23.755Z,75.21
2023-05-19T05:40:23.821Z,74.95
2023-05-19T05:41:23.755Z,74.92
2023-05-19T05:42:23.757Z,74.75
2023-05-19T05:43:23.710Z,74.44
2023-05-19T05:44:23.702Z,74.62
2023-05-19T05:45:23.765Z,74.82
2023-05-19T05:46:23.717Z,74.63
2023-05-19T05:47:23.750Z,74.69
2023-05-19T05:48:23.684Z,74.42
2023-05-19T05:49:23.643Z,74.22
2023-05-19T05:50:23.631Z,74.57
2023-05-19T05:51:23.660Z,74.53
2023-05-19T05:52:23.640Z,74.54
2023-05-19T05:53:23.586Z,74.72
2023-05-19T05:54:23.590Z,74.74
2023-05-19T05:55:23.555Z,74.70
2023-05-19T05:56:23.682Z,74.75
2023-05-19T05:57:23.573Z,74.80
2023-05-19T05:58:23.528Z,74.73
2023-05-19T05:59:23.600Z,74.56
2023-05-19T06:00:23.593Z,74.50
2023-05-19T06:01:23.533Z,74.41
2023-05-19T06:02:23.607Z,74.48
2023-05-19T06:03:23.517Z,74.37
2023-05-19T06:04:23.452Z,74.60
2023-05-19T06:05:23.476Z,74.29
2023-05-19T06:06:23.435Z,74.43
2023-05-19T06:07:23.420Z,74.41
2023-05-19T06:08:23.397Z,74.50
2023-05-19T06:09:23.456Z,74.50
2023-05-19T06:10:23.455Z,74.56
2023-05-19T06:11:23.403Z,74.47
2023-05-19T06:12:23.399Z,74.26
2023-05-19T06:13:23.339Z,74.27
2023-05-19T06:14:23.318Z,74.12
2023-05-19T06:15:23.303Z,73.92
2023-05-19T06:16:23.330Z,74.05
2023-05-19T06:17:23.292Z,73.98
2023-05-19T06:18:23.285Z,73.97
2023-05-19T06:19:23.285Z,74.04
2023-05-19T06:20:23.229Z,74.11
2023-05-19T06:21:23.240Z,74.10
2023-05-19T06:22:23.258Z,73.80
2023-05-19T06:23:23.221Z,73.45
2023-05-19T06:24:23.182Z,73.48
2023-05-19T06:25:23.173Z,73.69
2023-05-19T06:26:23.174Z,73.75
2023-05-19T06:27:23.165Z,73.79
2023-05-19T06:28:23.142Z,73.82
2023-05-19T06:29:23.138Z,74.07
2023-05-19T06:30:23.114Z,74.08
2023-05-19T06:31:23.169Z,74.05
2023-05-19T06:32:23.162Z,73.71
2023-05-19T06:33:23.182Z,73.42
2023-05-19T06:34:23.054Z,73.46
2023-05-19T06:35:23.048Z,73.88
2023-05-19T06:36:23.059Z,73.63
2023-05-19T06:37:23.019Z,73.75
2023-05-19T06:38:23.030Z,74.05
2023-05-19T06:39:23.007Z,74.19
2023-05-19T06:40:23.008Z,74.13
2023-05-19T06:41:23.001Z,73.85
2023-05-19T06:42:23.067Z,73.70
2023-05-19T06:43:22.948Z,73.76
2023-05-19T06:44:22.936Z,73.82
2023-05-19T06:45:22.913Z,73.84
2023-05-19T06:46:23.002Z,74.01
2023-05-19T06:47:22.983Z,74.30
2023-05-19T06:48:22.933Z,73.57
2023-05-19T06:49:22.869Z,72.88
2023-05-19T06:50:22.872Z,73.20
2023-05-19T06:51:22.888Z,72.68
2023-05-19T06:52:22.822Z,73.27
2023-05-19T06:53:22.844Z,72.46
2023-05-19T06:54:22.800Z,71.76
2023-05-19T06:55:22.817Z,72.53
2023-05-19T06:56:22.804Z,72.68
2023-05-19T06:57:22.763Z,72.82
2023-05-19T06:58:22.744Z,72.99
2023-05-19T06:59:22.729Z,72.83
2023-05-19T07:00:23.966Z,71.87
2023-05-19T07:01:22.833Z,71.10
2023-05-19T07:02:22.694Z,71.28
2023-05-19T07:03:22.803Z,71.03
2023-05-19T07:04:22.669Z,71.84
2023-05-19T07:05:22.657Z,71.83
2023-05-19T07:06:22.655Z,71.73
2023-05-19T07:07:22.662Z,71.47
2023-05-19T07:08:22.598Z,71.45
2023-05-19T07:09:22.626Z,71.36
2023-05-19T07:10:22.577Z,71.93
2023-05-19T07:11:22.574Z,71.88
2023-05-19T07:12:22.561Z,72.17
2023-05-19T07:13:23.551Z,72.40
2023-05-19T07:14:22.569Z,72.54
2023-05-19T07:15:22.542Z,73.01
2023-05-19T07:16:22.626Z,72.46
2023-05-19T07:17:22.798Z,72.40
2023-05-19T07:18:22.469Z,72.07
2023-05-19T07:19:22.731Z,71.78
2023-05-19T07:20:22.491Z,71.75
2023-05-19T07:21:22.468Z,71.72
2023-05-19T07:22:22.442Z,71.65
2023-05-19T07:23:22.421Z,71.79
2023-05-19T07:24:22.391Z,70.50
2023-05-19T07:25:22.410Z,70.15
2023-05-19T07:26:22.487Z,70.40
2023-05-19T07:27:22.493Z,70.62
2023-05-19T07:28:22.349Z,70.16
2023-05-19T07:29:22.384Z,70.49
2023-05-19T07:30:22.322Z,70.92
2023-05-19T07:31:22.366Z,70.48
2023-05-19T07:32:22.413Z,69.67
2023-05-19T07:33:22.452Z,70.37
2023-05-19T07:34:22.264Z,70.55
2023-05-19T07:35:22.279Z,70.69
2023-05-19T07:36:22.276Z,70.47
2023-05-19T07:37:22.290Z,70.22
2023-05-19T07:38:22.248Z,70.46
2023-05-19T07:39:22.268Z,70.21
2023-05-19T07:40:22.195Z,70.19
2023-05-19T07:41:22.289Z,69.79
2023-05-19T07:42:22.198Z,69.52
2023-05-19T07:43:22.171Z,69.62
2023-05-19T07:44:22.151Z,69.99
2023-05-19T07:45:22.131Z,70.06
2023-05-19T07:46:22.245Z,70.35
2023-05-19T07:47:22.119Z,70.46
2023-05-19T07:48:22.143Z,70.32
2023-05-19T07:49:22.090Z,70.13
2023-05-19T07:50:22.064Z,70.36
2023-05-19T07:51:22.060Z,70.40
2023-05-19T07:52:22.129Z,70.50
2023-05-19T07:53:22.040Z,70.70
2023-05-19T07:54:22.049Z,70.61
2023-05-19T07:55:22.006Z,70.06
2023-05-19T07:56:21.997Z,69.98
2023-05-19T07:57:21.978Z,70.20
2023-05-19T07:58:21.980Z,70.61
2023-05-19T07:59:21.977Z,70.42
2023-05-19T08:00:21.957Z,70.31
2023-05-19T08:01:21.915Z,70.48
2023-05-19T08:02:21.953Z,70.26
2023-05-19T08:03:22.028Z,70.35
2023-05-19T08:04:21.932Z,70.28
2023-05-19T08:05:21.873Z,70.11
2023-05-19T08:06:21.883Z,70.26
2023-05-19T08:07:21.941Z,70.27
2023-05-19T08:08:21.838Z,70.18
2023-05-19T08:09:21.847Z,70.12
2023-05-19T08:10:21.798Z,69.88
2023-05-19T08:11:21.808Z,69.69
2023-05-19T08:12:21.786Z,69.43
2023-05-19T08:13:21.794Z,69.30
2023-05-19T08:14:22.098Z,69.83
2023-05-19T08:15:21.739Z,69.79
2023-05-19T08:16:21.861Z,69.88
2023-05-19T08:17:21.726Z,70.00
2023-05-19T08:18:21.710Z,70.24
2023-05-19T08:19:21.953Z,69.94
2023-05-19T08:20:21.700Z,70.00
2023-05-19T08:21:21.665Z,70.25
2023-05-19T08:22:21.667Z,69.86
2023-05-19T08:23:21.643Z,69.54
2023-05-19T08:24:21.649Z,69.64
2023-05-19T08:25:21.634Z,69.81
2023-05-19T08:26:21.607Z,69.49
2023-05-19T08:27:21.579Z,69.45
2023-05-19T08:28:21.583Z,69.49
2023-05-19T08:29:21.567Z,69.93
2023-05-19T08:30:21.568Z,69.69
2023-05-19T08:31:21.633Z,69.63
2023-05-19T08:32:21.618Z,69.74
2023-05-19T08:33:21.523Z,69.91
2023-05-19T08:34:21.528Z,69.60
2023-05-19T08:35:21.506Z,69.63
2023-05-19T08:36:21.492Z,69.85
2023-05-19T08:37:21.466Z,69.80
2023-05-19T08:38:21.443Z,69.86
2023-05-19T08:39:21.424Z,69.87
2023-05-19T08:40:21.448Z,69.99
2023-05-19T08:41:21.404Z,70.00
2023-05-19T08:42:21.397Z,70.03
2023-05-19T08:43:21.376Z,70.12
2023-05-19T08:44:21.393Z,70.32
2023-05-19T08:45:21.355Z,70.44
2023-05-19T08:46:21.402Z,70.66
2023-05-19T08:47:21.333Z,70.39
2023-05-19T08:48:21.323Z,70.31
2023-05-19T08:49:21.877Z,70.38
2023-05-19T08:50:21.312Z,70.38
2023-05-19T08:51:21.273Z,70.64
2023-05-19T08:52:21.255Z,70.41
2023-05-19T08:53:32.329Z,70.31
2023-05-19T08:54:21.247Z,70.40
2023-05-19T08:55:21.250Z,70.36
2023-05-19T08:56:21.217Z,70.54
2023-05-19T08:57:21.201Z,70.46
2023-05-19T08:58:21.193Z,70.33
2023-05-19T08:59:21.272Z,70.26
2023-05-19T09:00:21.192Z,70.49
2023-05-19T09:01:21.304Z,70.59
2023-05-19T09:02:22.043Z,70.89
2023-05-19T09:03:23.960Z,70.91
2023-05-19T09:04:21.248Z,70.73
2023-05-19T09:05:21.163Z,70.84
2023-05-19T09:06:21.077Z,70.67
2023-05-19T09:07:21.088Z,70.47
2023-05-19T09:08:21.097Z,70.45
2023-05-19T09:09:21.033Z,70.50
2023-05-19T09:10:21.125Z,70.90
2023-05-19T09:11:21.036Z,70.81
2023-05-19T09:12:20.998Z,71.09
2023-05-19T09:13:20.992Z,70.97
2023-05-19T09:14:21.010Z,70.87
2023-05-19T09:15:20.993Z,70.83
2023-05-19T09:16:20.975Z,70.71
2023-05-19T09:17:20.975Z,70.59
2023-05-19T09:18:20.939Z,70.53
2023-05-19T09:19:21.010Z,70.42
2023-05-19T09:20:20.897Z,70.44
2023-05-19T09:21:20.893Z,70.85
2023-05-19T09:22:20.877Z,70.86
2023-05-19T09:23:20.865Z,70.72
2023-05-19T09:24:20.910Z,70.62
2023-05-19T09:25:20.828Z,70.69
2023-05-19T09:26:20.836Z,71.06
2023-05-19T09:27:20.805Z,71.10
2023-05-19T09:28:20.813Z,70.81
2023-05-19T09:29:20.779Z,70.51
2023-05-19T09:30:20.757Z,70.44
2023-05-19T09:31:20.776Z,70.38
2023-05-19T09:32:20.888Z,70.24
2023-05-19T09:33:20.872Z,70.17
2023-05-19T09:34:20.701Z,70.32
2023-05-19T09:35:20.686Z,70.52
2023-05-19T09:36:20.709Z,70.49
2023-05-19T09:37:20.660Z,70.35
2023-05-19T09:38:20.681Z,70.46
2023-05-19T09:39:20.670Z,70.35
2023-05-19T09:40:20.644Z,70.10
2023-05-19T09:41:20.627Z,69.68
2023-05-19T09:42:20.601Z,70.08
2023-05-19T09:43:20.604Z,70.00
2023-05-19T09:44:20.599Z,70.06
2023-05-19T09:45:20.557Z,70.13
2023-05-19T09:46:20.597Z,70.37
2023-05-19T09:47:20.562Z,70.25
2023-05-19T09:48:20.521Z,70.40
2023-05-19T09:49:20.511Z,70.09
2023-05-19T09:50:20.544Z,69.91
2023-05-19T09:51:20.497Z,69.90
2023-05-19T09:52:20.478Z,69.81
2023-05-19T09:53:20.466Z,69.75
2023-05-19T09:54:20.450Z,69.67
2023-05-19T09:55:20.436Z,69.67
2023-05-19T09:56:20.418Z,69.60
2023-05-19T09:57:20.438Z,69.22
2023-05-19T09:58:21.465Z,69.43
2023-05-19T09:59:20.417Z,69.51
2023-05-19T10:00:20.377Z,69.89
2023-05-19T10:01:20.353Z,69.65
2023-05-19T10:02:20.346Z,69.48
2023-05-19T10:03:20.320Z,69.55
2023-05-19T10:04:20.321Z,69.59
2023-05-19T10:05:20.607Z,69.60
2023-05-19T10:06:20.286Z,69.70
2023-05-19T10:07:20.282Z,69.74
2023-05-19T10:08:20.284Z,69.78
2023-05-19T10:09:20.260Z,69.80
2023-05-19T10:10:20.248Z,69.63
2023-05-19T10:11:20.284Z,69.54
2023-05-19T10:12:20.231Z,69.79
2023-05-19T10:13:20.266Z,69.70
2023-05-19T10:14:20.180Z,69.57
2023-05-19T10:15:22.758Z,69.82
2023-05-19T10:16:20.307Z,70.02
2023-05-19T10:17:20.173Z,69.97
2023-05-19T10:18:20.204Z,69.88
2023-05-19T10:19:20.137Z,69.96
2023-05-19T10:20:20.177Z,69.91
2023-05-19T10:21:20.162Z,69.94
2023-05-19T10:22:20.180Z,70.21
2023-05-19T10:23:20.160Z,70.03
2023-05-19T10:24:20.103Z,70.16
2023-05-19T10:25:20.096Z,70.31
2023-05-19T10:26:20.095Z,70.19
2023-05-19T10:27:20.634Z,70.23
2023-05-19T10:28:20.028Z,69.90
2023-05-19T10:29:19.963Z,69.55
2023-05-19T10:30:19.951Z,69.13
2023-05-19T10:31:19.941Z,69.71
2023-05-19T10:32:20.014Z,70.08
2023-05-19T10:33:20.034Z,69.61
2023-05-19T10:34:19.910Z,69.38
2023-05-19T10:35:19.890Z,69.29
2023-05-19T10:36:19.883Z,68.90
2023-05-19T10:37:19.856Z,68.52
2023-05-19T10:38:19.894Z,68.17
2023-05-19T10:39:19.871Z,68.40
2023-05-19T10:40:19.828Z,69.10
2023-05-19T10:41:19.819Z,68.93
2023-05-19T10:42:19.863Z,69.15
2023-05-19T10:43:19.790Z,69.04
2023-05-19T10:44:19.794Z,69.33
2023-05-19T10:45:19.737Z,70.09
2023-05-19T10:46:19.861Z,69.79
2023-05-19T10:47:19.805Z,69.53
2023-05-19T10:48:19.770Z,69.44
2023-05-19T10:49:19.723Z,69.00
2023-05-19T10:50:19.705Z,69.17
2023-05-19T10:51:19.680Z,68.89
2023-05-19T10:52:19.731Z,69.29
2023-05-19T10:53:19.712Z,69.58
2023-05-19T10:54:19.691Z,69.19
2023-05-19T10:55:19.704Z,69.29
2023-05-19T10:56:19.625Z,69.39
2023-05-19T10:57:19.657Z,69.05
2023-05-19T10:58:19.628Z,69.21
2023-05-19T10:59:19.585Z,69.43
2023-05-19T11:00:19.562Z,69.53
2023-05-19T11:01:19.676Z,69.48
2023-05-19T11:02:19.684Z,69.31
2023-05-19T11:03:19.634Z,69.51
2023-05-19T11:04:19.629Z,69.61
2023-05-19T11:05:19.546Z,69.78
2023-05-19T11:06:19.554Z,69.62
2023-05-19T11:07:19.572Z,69.38
2023-05-19T11:08:19.494Z,69.21
2023-05-19T11:09:22.613Z,69.44
2023-05-19T11:10:19.456Z,69.55
2023-05-19T11:11:19.447Z,69.58
2023-05-19T11:12:19.613Z,69.56
2023-05-19T11:13:19.467Z,69.65
2023-05-19T11:14:19.477Z,69.75
2023-05-19T11:15:19.386Z,69.94
2023-05-19T11:16:19.467Z,69.88
2023-05-19T11:17:19.358Z,70.07
2023-05-19T11:18:19.369Z,69.89
2023-05-19T11:19:19.409Z,70.09
2023-05-19T11:20:19.316Z,69.98
2023-05-19T11:21:19.310Z,69.86
2023-05-19T11:22:19.310Z,69.53
2023-05-19T11:23:19.298Z,69.95
2023-05-19T11:24:19.256Z,69.61
2023-05-19T11:25:19.248Z,69.56
2023-05-19T11:26:19.232Z,69.85
2023-05-19T11:27:19.220Z,69.89
2023-05-19T11:28:19.522Z,70.15
2023-05-19T11:29:19.198Z,69.98
2023-05-19T11:30:19.220Z,69.93
2023-05-19T11:31:19.170Z,70.11
2023-05-19T11:32:19.202Z,69.86
2023-05-19T11:33:19.223Z,69.61
2023-05-19T11:34:19.131Z,69.84
2023-05-19T11:35:19.172Z,69.82
2023-05-19T11:36:19.155Z,69.46
2023-05-19T11:37:19.099Z,69.67
2023-05-19T11:38:19.128Z,69.75
2023-05-19T11:39:19.077Z,69.88
2023-05-19T11:40:19.080Z,70.10
2023-05-19T11:41:20.755Z,70.30
2023-05-19T11:42:19.017Z,69.96
2023-05-19T11:43:19.019Z,69.87
2023-05-19T11:44:19.016Z,69.75
2023-05-19T11:45:18.974Z,69.39
2023-05-19T11:46:19.057Z,69.41
2023-05-19T11:47:19.041Z,69.54
2023-05-19T11:48:18.988Z,69.35
2023-05-19T11:49:18.945Z,69.65
2023-05-19T11:50:18.955Z,69.93
2023-05-19T11:51:18.935Z,70.02
2023-05-19T11:52:18.913Z,69.59
2023-05-19T11:53:18.892Z,70.02
2023-05-19T11:54:18.885Z,69.79
2023-05-19T11:55:18.888Z,69.93
2023-05-19T11:56:18.844Z,69.76
2023-05-19T11:57:18.812Z,69.83
2023-05-19T11:58:18.808Z,69.73
2023-05-19T11:59:18.802Z,69.42
2023-05-19T12:00:18.797Z,69.60
2023-05-19T12:01:18.790Z,69.84
2023-05-19T12:02:18.823Z,69.80
2023-05-19T12:03:19.649Z,69.87
2023-05-19T12:04:18.738Z,69.56
2023-05-19T12:05:18.850Z,69.59
2023-05-19T12:06:18.786Z,69.63
2023-05-19T12:07:18.753Z,69.90
2023-05-19T12:08:18.742Z,69.57
2023-05-19T12:09:18.687Z,69.74
2023-05-19T12:10:18.643Z,69.61
2023-05-19T12:11:19.976Z,69.72
2023-05-19T12:12:18.645Z,69.68
2023-05-19T12:13:18.640Z,69.70
2023-05-19T12:14:18.669Z,69.70
2023-05-19T12:15:18.603Z,69.51
2023-05-19T12:16:18.624Z,69.69
2023-05-19T12:17:18.571Z,69.45
2023-05-19T12:18:18.537Z,69.52
2023-05-19T12:19:18.625Z,69.47
2023-05-19T12:20:18.503Z,69.40
2023-05-19T12:21:18.578Z,69.62
2023-05-19T12:22:18.537Z,69.75
2023-05-19T12:23:18.542Z,69.66
2023-05-19T12:24:18.465Z,69.73
2023-05-19T12:25:18.451Z,69.97
2023-05-19T12:26:18.436Z,70.05
2023-05-19T12:27:18.460Z,70.19
2023-05-19T12:28:18.510Z,70.07
2023-05-19T12:29:18.437Z,70.09
2023-05-19T12:30:18.436Z,69.98
2023-05-19T12:31:18.403Z,69.88
2023-05-19T12:32:18.356Z,70.08
2023-05-19T12:33:18.346Z,70.19
2023-05-19T12:34:18.410Z,70.48
2023-05-19T12:35:18.348Z,70.46
2023-05-19T12:36:18.318Z,70.53
2023-05-19T12:37:18.291Z,70.15
2023-05-19T12:38:18.275Z,70.14
2023-05-19T12:39:19.513Z,70.07
2023-05-19T12:40:18.282Z,69.91
2023-05-19T12:41:18.254Z,70.03
2023-05-19T12:42:18.288Z,70.30
2023-05-19T12:43:18.230Z,69.98
2023-05-19T12:44:18.201Z,69.98
2023-05-19T12:45:18.209Z,70.20
2023-05-19T12:46:18.251Z,70.05
2023-05-19T12:47:18.179Z,69.91
2023-05-19T12:48:18.217Z,69.95
2023-05-19T12:49:18.156Z,70.01
2023-05-19T12:50:18.134Z,69.90
2023-05-19T12:51:18.118Z,69.78
2023-05-19T12:52:18.113Z,69.98
2023-05-19T12:53:18.087Z,70.15
2023-05-19T12:54:18.124Z,70.10
2023-05-19T12:55:18.088Z,69.83
2023-05-19T12:56:18.036Z,69.62
2023-05-19T12:57:18.093Z,68.85
2023-05-19T12:58:18.017Z,69.13
2023-05-19T12:59:26.912Z,69.50
2023-05-19T13:00:18.025Z,69.47
2023-05-19T13:01:18.121Z,69.27
2023-05-19T13:02:17.990Z,68.61
2023-05-19T13:03:18.088Z,68.53
2023-05-19T13:04:18.077Z,69.07
2023-05-19T13:05:17.942Z,68.70
2023-05-19T13:06:17.928Z,68.52
2023-05-19T13:07:17.909Z,68.41
2023-05-19T13:08:17.889Z,68.14
2023-05-19T13:09:17.868Z,67.79
2023-05-19T13:10:17.859Z,68.42
2023-05-19T13:11:17.849Z,69.03
2023-05-19T13:12:17.852Z,69.48
2023-05-19T13:13:17.966Z,69.25
2023-05-19T13:14:17.805Z,69.62
2023-05-19T13:15:17.816Z,69.92
2023-05-19T13:16:17.873Z,70.02
2023-05-19T13:17:17.841Z,70.23
2023-05-19T13:18:17.774Z,69.66
2023-05-19T13:19:25.503Z,69.56
2023-05-19T13:20:17.760Z,70.09
2023-05-19T13:21:17.713Z,70.34
2023-05-19T13:22:17.725Z,70.15
2023-05-19T13:23:17.693Z,69.51
2023-05-19T13:24:17.689Z,69.29
2023-05-19T13:25:17.897Z,68.25
2023-05-19T13:26:17.658Z,68.44
2023-05-19T13:27:17.648Z,69.13
2023-05-19T13:28:17.620Z,69.81
2023-05-19T13:29:17.685Z,70.20